sensor_id;sensor_type;location;lat;lon;timestamp;P1;durP1;ratioP1;P2;durP2;ratioP2
7659;SDS011;3872;47.902;8.162;2023-02-22T00:00:21;4.87;;;1.70;;
7659;SDS011;3872;47.902;8.162;2023-02-22T00:02:51;4.00;;;1.37;;
7659;SDS011;3872;47.902;8.162;2023-02-22T00:05:23;4.37;;;2.03;;
7659;SDS011;3872;47.902;8.162;2023-02-22T00:07:51;7.07;;;1.60;;
7659;SDS011;3872;47.902;8.162;2023-02-22T00:10:21;4.47;;;1.83;;
7659;SDS011;3872;47.902;8.162;2023-02-22T00:12:48;4.40;;;1.60;;
7659;SDS011;3872;47.902;8.162;2023-02-22T00:15:17;5.87;;;1.70;;
7659;SDS011;3872;47.902;8.162;2023-02-22T00:17:46;5.20;;;2.03;;
7659;SDS011;3872;47.902;8.162;2023-02-22T00:20:15;4.30;;;1.60;;
7659;SDS011;3872;47.902;8.162;2023-02-22T00:22:43;6.77;;;1.70;;
7659;SDS011;3872;47.902;8.162;2023-02-22T00:25:12;4.73;;;1.63;;
7659;SDS011;3872;47.902;8.162;2023-02-22T00:27:41;5.67;;;2.00;;
7659;SDS011;3872;47.902;8.162;2023-02-22T00:30:09;4.30;;;1.60;;
7659;SDS011;3872;47.902;8.162;2023-02-22T00:32:43;7.23;;;1.77;;
7659;SDS011;3872;47.902;8.162;2023-02-22T00:35:11;5.07;;;2.40;;
7659;SDS011;3872;47.902;8.162;2023-02-22T00:37:39;4.77;;;1.90;;
7659;SDS011;3872;47.902;8.162;2023-02-22T00:40:07;6.23;;;2.23;;
7659;SDS011;3872;47.902;8.162;2023-02-22T00:42:35;4.37;;;1.57;;
7659;SDS011;3872;47.902;8.162;2023-02-22T00:45:01;4.53;;;2.07;;
7659;SDS011;3872;47.902;8.162;2023-02-22T00:47:28;4.20;;;2.03;;
7659;SDS011;3872;47.902;8.162;2023-02-22T00:49:55;5.67;;;1.57;;
7659;SDS011;3872;47.902;8.162;2023-02-22T00:52:28;4.57;;;1.70;;
7659;SDS011;3872;47.902;8.162;2023-02-22T00:55:02;5.40;;;2.00;;
7659;SDS011;3872;47.902;8.162;2023-02-22T00:57:30;5.40;;;2.27;;
7659;SDS011;3872;47.902;8.162;2023-02-22T00:59:58;3.83;;;1.50;;
7659;SDS011;3872;47.902;8.162;2023-02-22T01:02:25;4.60;;;1.87;;
7659;SDS011;3872;47.902;8.162;2023-02-22T01:04:52;4.40;;;1.57;;
7659;SDS011;3872;47.902;8.162;2023-02-22T01:07:18;4.60;;;1.23;;
7659;SDS011;3872;47.902;8.162;2023-02-22T01:09:45;5.23;;;2.00;;
7659;SDS011;3872;47.902;8.162;2023-02-22T01:12:13;4.37;;;1.90;;
7659;SDS011;3872;47.902;8.162;2023-02-22T01:14:40;8.00;;;1.97;;
7659;SDS011;3872;47.902;8.162;2023-02-22T01:17:06;4.20;;;1.73;;
7659;SDS011;3872;47.902;8.162;2023-02-22T01:19:34;6.30;;;1.80;;
7659;SDS011;3872;47.902;8.162;2023-02-22T01:22:00;4.10;;;1.63;;
7659;SDS011;3872;47.902;8.162;2023-02-22T01:24:29;4.40;;;1.97;;
7659;SDS011;3872;47.902;8.162;2023-02-22T01:26:55;3.87;;;1.60;;
7659;SDS011;3872;47.902;8.162;2023-02-22T01:29:23;4.90;;;1.87;;
7659;SDS011;3872;47.902;8.162;2023-02-22T01:31:50;4.90;;;1.73;;
7659;SDS011;3872;47.902;8.162;2023-02-22T01:34:19;4.23;;;1.73;;
7659;SDS011;3872;47.902;8.162;2023-02-22T01:36:46;6.10;;;2.30;;
7659;SDS011;3872;47.902;8.162;2023-02-22T01:39:12;16.87;;;5.27;;
7659;SDS011;3872;47.902;8.162;2023-02-22T01:41:40;19.53;;;7.90;;
7659;SDS011;3872;47.902;8.162;2023-02-22T01:44:17;71.97;;;25.47;;
7659;SDS011;3872;47.902;8.162;2023-02-22T01:46:47;28.67;;;10.87;;
7659;SDS011;3872;47.902;8.162;2023-02-22T01:49:13;23.93;;;6.80;;
7659;SDS011;3872;47.902;8.162;2023-02-22T01:51:41;13.17;;;5.83;;
7659;SDS011;3872;47.902;8.162;2023-02-22T01:54:10;10.60;;;4.63;;
7659;SDS011;3872;47.902;8.162;2023-02-22T01:56:40;11.67;;;4.10;;
7659;SDS011;3872;47.902;8.162;2023-02-22T01:59:14;14.10;;;3.63;;
7659;SDS011;3872;47.902;8.162;2023-02-22T02:01:43;9.20;;;3.90;;
7659;SDS011;3872;47.902;8.162;2023-02-22T02:04:12;7.90;;;3.17;;
7659;SDS011;3872;47.902;8.162;2023-02-22T02:06:42;9.60;;;3.30;;
7659;SDS011;3872;47.902;8.162;2023-02-22T02:09:13;10.50;;;3.10;;
7659;SDS011;3872;47.902;8.162;2023-02-22T02:11:46;5.00;;;2.23;;
7659;SDS011;3872;47.902;8.162;2023-02-22T02:14:15;9.97;;;3.13;;
7659;SDS011;3872;47.902;8.162;2023-02-22T02:16:43;11.87;;;6.00;;
7659;SDS011;3872;47.902;8.162;2023-02-22T02:19:18;6.60;;;3.40;;
7659;SDS011;3872;47.902;8.162;2023-02-22T02:22:01;7.87;;;2.67;;
7659;SDS011;3872;47.902;8.162;2023-02-22T02:24:47;7.60;;;2.83;;
7659;SDS011;3872;47.902;8.162;2023-02-22T02:27:33;5.10;;;2.03;;
7659;SDS011;3872;47.902;8.162;2023-02-22T02:30:34;7.40;;;3.73;;
7659;SDS011;3872;47.902;8.162;2023-02-22T02:33:14;8.07;;;4.23;;
7659;SDS011;3872;47.902;8.162;2023-02-22T02:35:48;12.60;;;8.20;;
7659;SDS011;3872;47.902;8.162;2023-02-22T02:38:21;6.00;;;3.30;;
7659;SDS011;3872;47.902;8.162;2023-02-22T02:40:58;9.30;;;4.03;;
7659;SDS011;3872;47.902;8.162;2023-02-22T02:43:33;11.43;;;4.03;;
7659;SDS011;3872;47.902;8.162;2023-02-22T02:46:06;8.17;;;4.10;;
7659;SDS011;3872;47.902;8.162;2023-02-22T02:48:39;7.60;;;3.70;;
7659;SDS011;3872;47.902;8.162;2023-02-22T02:51:09;8.13;;;4.17;;
7659;SDS011;3872;47.902;8.162;2023-02-22T02:53:39;10.07;;;5.07;;
7659;SDS011;3872;47.902;8.162;2023-02-22T02:56:10;6.40;;;3.83;;
7659;SDS011;3872;47.902;8.162;2023-02-22T02:58:42;7.80;;;3.50;;
7659;SDS011;3872;47.902;8.162;2023-02-22T03:01:14;6.80;;;3.50;;
7659;SDS011;3872;47.902;8.162;2023-02-22T03:06:47;5.67;;;3.13;;
7659;SDS011;3872;47.902;8.162;2023-02-22T03:09:27;8.43;;;4.17;;
7659;SDS011;3872;47.902;8.162;2023-02-22T03:12:07;7.50;;;3.60;;
7659;SDS011;3872;47.902;8.162;2023-02-22T03:14:49;5.93;;;2.47;;
7659;SDS011;3872;47.902;8.162;2023-02-22T03:17:22;8.73;;;3.43;;
7659;SDS011;3872;47.902;8.162;2023-02-22T03:19:57;7.00;;;2.80;;
7659;SDS011;3872;47.902;8.162;2023-02-22T03:22:35;5.20;;;2.30;;
7659;SDS011;3872;47.902;8.162;2023-02-22T03:25:10;5.47;;;2.80;;
7659;SDS011;3872;47.902;8.162;2023-02-22T03:27:43;10.90;;;3.03;;
7659;SDS011;3872;47.902;8.162;2023-02-22T03:30:15;7.63;;;2.83;;
7659;SDS011;3872;47.902;8.162;2023-02-22T03:32:46;8.23;;;2.67;;
7659;SDS011;3872;47.902;8.162;2023-02-22T03:35:18;4.90;;;2.33;;
7659;SDS011;3872;47.902;8.162;2023-02-22T03:37:49;4.87;;;2.40;;
7659;SDS011;3872;47.902;8.162;2023-02-22T03:40:21;5.00;;;2.13;;
7659;SDS011;3872;47.902;8.162;2023-02-22T03:42:55;5.07;;;2.50;;
7659;SDS011;3872;47.902;8.162;2023-02-22T03:45:27;5.70;;;2.50;;
7659;SDS011;3872;47.902;8.162;2023-02-22T03:47:57;5.93;;;2.07;;
7659;SDS011;3872;47.902;8.162;2023-02-22T03:50:31;8.20;;;2.33;;
7659;SDS011;3872;47.902;8.162;2023-02-22T03:53:01;5.13;;;2.20;;
7659;SDS011;3872;47.902;8.162;2023-02-22T03:55:30;5.70;;;2.57;;
7659;SDS011;3872;47.902;8.162;2023-02-22T03:57:58;5.57;;;2.47;;
7659;SDS011;3872;47.902;8.162;2023-02-22T04:00:30;5.27;;;2.00;;
7659;SDS011;3872;47.902;8.162;2023-02-22T04:02:59;4.53;;;1.50;;
7659;SDS011;3872;47.902;8.162;2023-02-22T04:05:26;3.90;;;1.97;;
7659;SDS011;3872;47.902;8.162;2023-02-22T04:07:54;4.90;;;2.10;;
7659;SDS011;3872;47.902;8.162;2023-02-22T04:10:22;5.07;;;1.80;;
7659;SDS011;3872;47.902;8.162;2023-02-22T04:12:49;5.23;;;2.00;;
7659;SDS011;3872;47.902;8.162;2023-02-22T04:15:17;5.77;;;1.70;;
7659;SDS011;3872;47.902;8.162;2023-02-22T04:17:47;4.43;;;1.80;;
7659;SDS011;3872;47.902;8.162;2023-02-22T04:20:14;4.10;;;1.80;;
7659;SDS011;3872;47.902;8.162;2023-02-22T04:22:49;3.83;;;1.63;;
7659;SDS011;3872;47.902;8.162;2023-02-22T04:25:18;6.80;;;2.27;;
7659;SDS011;3872;47.902;8.162;2023-02-22T04:27:46;4.77;;;2.27;;
7659;SDS011;3872;47.902;8.162;2023-02-22T04:30:15;4.07;;;1.63;;
7659;SDS011;3872;47.902;8.162;2023-02-22T04:32:43;6.07;;;2.17;;
7659;SDS011;3872;47.902;8.162;2023-02-22T04:35:10;5.67;;;2.17;;
7659;SDS011;3872;47.902;8.162;2023-02-22T04:37:37;5.93;;;2.00;;
7659;SDS011;3872;47.902;8.162;2023-02-22T04:40:06;4.57;;;1.90;;
7659;SDS011;3872;47.902;8.162;2023-02-22T04:42:35;5.00;;;1.50;;
7659;SDS011;3872;47.902;8.162;2023-02-22T04:45:03;4.33;;;1.70;;
7659;SDS011;3872;47.902;8.162;2023-02-22T04:47:32;4.77;;;1.87;;
7659;SDS011;3872;47.902;8.162;2023-02-22T04:49:59;4.77;;;1.43;;
7659;SDS011;3872;47.902;8.162;2023-02-22T04:52:27;4.80;;;2.00;;
7659;SDS011;3872;47.902;8.162;2023-02-22T04:54:54;6.80;;;2.43;;
7659;SDS011;3872;47.902;8.162;2023-02-22T04:57:21;8.50;;;1.87;;
7659;SDS011;3872;47.902;8.162;2023-02-22T04:59:50;4.63;;;1.80;;
7659;SDS011;3872;47.902;8.162;2023-02-22T05:02:17;6.10;;;2.40;;
7659;SDS011;3872;47.902;8.162;2023-02-22T05:04:44;5.03;;;1.80;;
7659;SDS011;3872;47.902;8.162;2023-02-22T05:07:10;4.30;;;1.60;;
7659;SDS011;3872;47.902;8.162;2023-02-22T05:09:37;4.40;;;1.40;;
7659;SDS011;3872;47.902;8.162;2023-02-22T05:12:03;4.70;;;2.10;;
7659;SDS011;3872;47.902;8.162;2023-02-22T05:14:30;5.83;;;2.17;;
7659;SDS011;3872;47.902;8.162;2023-02-22T05:16:58;4.63;;;1.93;;
7659;SDS011;3872;47.902;8.162;2023-02-22T05:19:27;9.43;;;2.27;;
7659;SDS011;3872;47.902;8.162;2023-02-22T05:21:53;4.40;;;1.80;;
7659;SDS011;3872;47.902;8.162;2023-02-22T05:24:20;3.60;;;1.47;;
7659;SDS011;3872;47.902;8.162;2023-02-22T05:26:47;5.13;;;2.37;;
7659;SDS011;3872;47.902;8.162;2023-02-22T05:29:15;10.20;;;2.20;;
7659;SDS011;3872;47.902;8.162;2023-02-22T05:31:42;4.00;;;1.80;;
7659;SDS011;3872;47.902;8.162;2023-02-22T05:34:11;4.20;;;1.83;;
7659;SDS011;3872;47.902;8.162;2023-02-22T05:36:38;6.13;;;2.00;;
7659;SDS011;3872;47.902;8.162;2023-02-22T05:39:04;6.87;;;1.80;;
7659;SDS011;3872;47.902;8.162;2023-02-22T05:41:31;5.40;;;1.20;;
7659;SDS011;3872;47.902;8.162;2023-02-22T05:43:58;3.83;;;1.50;;
7659;SDS011;3872;47.902;8.162;2023-02-22T05:46:25;4.27;;;1.27;;
7659;SDS011;3872;47.902;8.162;2023-02-22T05:48:51;3.70;;;1.53;;
7659;SDS011;3872;47.902;8.162;2023-02-22T05:51:19;4.03;;;1.30;;
7659;SDS011;3872;47.902;8.162;2023-02-22T05:53:46;6.10;;;2.03;;
7659;SDS011;3872;47.902;8.162;2023-02-22T05:56:19;4.70;;;1.80;;
7659;SDS011;3872;47.902;8.162;2023-02-22T05:58:46;8.50;;;2.60;;
7659;SDS011;3872;47.902;8.162;2023-02-22T06:01:12;4.03;;;1.90;;
7659;SDS011;3872;47.902;8.162;2023-02-22T06:03:39;4.97;;;1.70;;
7659;SDS011;3872;47.902;8.162;2023-02-22T06:06:05;4.90;;;1.87;;
7659;SDS011;3872;47.902;8.162;2023-02-22T06:08:33;3.90;;;1.77;;
7659;SDS011;3872;47.902;8.162;2023-02-22T06:11:00;6.97;;;1.97;;
7659;SDS011;3872;47.902;8.162;2023-02-22T06:13:26;4.50;;;1.57;;
7659;SDS011;3872;47.902;8.162;2023-02-22T06:15:53;4.53;;;1.90;;
7659;SDS011;3872;47.902;8.162;2023-02-22T06:18:19;3.80;;;1.40;;
7659;SDS011;3872;47.902;8.162;2023-02-22T06:20:46;5.10;;;2.23;;
7659;SDS011;3872;47.902;8.162;2023-02-22T06:23:12;3.93;;;1.40;;
7659;SDS011;3872;47.902;8.162;2023-02-22T06:25:40;5.37;;;1.97;;
7659;SDS011;3872;47.902;8.162;2023-02-22T06:28:07;4.13;;;1.60;;
7659;SDS011;3872;47.902;8.162;2023-02-22T06:30:35;5.10;;;2.03;;
7659;SDS011;3872;47.902;8.162;2023-02-22T06:33:01;4.83;;;1.80;;
7659;SDS011;3872;47.902;8.162;2023-02-22T06:35:28;8.10;;;1.80;;
7659;SDS011;3872;47.902;8.162;2023-02-22T06:37:54;6.77;;;1.57;;
7659;SDS011;3872;47.902;8.162;2023-02-22T06:40:21;4.73;;;1.87;;
7659;SDS011;3872;47.902;8.162;2023-02-22T06:42:49;3.37;;;1.17;;
7659;SDS011;3872;47.902;8.162;2023-02-22T06:45:15;4.17;;;1.30;;
7659;SDS011;3872;47.902;8.162;2023-02-22T06:47:43;4.20;;;1.43;;
7659;SDS011;3872;47.902;8.162;2023-02-22T06:50:16;4.93;;;1.60;;
7659;SDS011;3872;47.902;8.162;2023-02-22T06:52:45;4.97;;;2.30;;
7659;SDS011;3872;47.902;8.162;2023-02-22T06:55:15;4.37;;;1.83;;
7659;SDS011;3872;47.902;8.162;2023-02-22T06:57:42;5.03;;;1.90;;
7659;SDS011;3872;47.902;8.162;2023-02-22T07:00:11;46.53;;;7.20;;
7659;SDS011;3872;47.902;8.162;2023-02-22T07:02:40;28.17;;;7.17;;
7659;SDS011;3872;47.902;8.162;2023-02-22T07:05:09;24.70;;;5.77;;
7659;SDS011;3872;47.902;8.162;2023-02-22T07:07:36;11.63;;;2.97;;
7659;SDS011;3872;47.902;8.162;2023-02-22T07:10:04;9.90;;;3.77;;
7659;SDS011;3872;47.902;8.162;2023-02-22T07:12:32;6.43;;;3.10;;
7659;SDS011;3872;47.902;8.162;2023-02-22T07:14:59;6.43;;;1.80;;
7659;SDS011;3872;47.902;8.162;2023-02-22T07:17:26;5.30;;;2.00;;
7659;SDS011;3872;47.902;8.162;2023-02-22T07:19:53;5.33;;;2.20;;
7659;SDS011;3872;47.902;8.162;2023-02-22T07:22:20;5.20;;;1.90;;
7659;SDS011;3872;47.902;8.162;2023-02-22T07:24:46;13.97;;;1.80;;
7659;SDS011;3872;47.902;8.162;2023-02-22T07:27:13;7.13;;;2.53;;
7659;SDS011;3872;47.902;8.162;2023-02-22T07:29:41;6.00;;;2.60;;
7659;SDS011;3872;47.902;8.162;2023-02-22T07:32:08;7.10;;;2.10;;
7659;SDS011;3872;47.902;8.162;2023-02-22T07:34:36;6.73;;;2.93;;
7659;SDS011;3872;47.902;8.162;2023-02-22T07:37:02;5.90;;;2.40;;
7659;SDS011;3872;47.902;8.162;2023-02-22T07:39:29;6.57;;;2.40;;
7659;SDS011;3872;47.902;8.162;2023-02-22T07:41:55;10.17;;;2.70;;
7659;SDS011;3872;47.902;8.162;2023-02-22T07:44:23;8.53;;;3.03;;
7659;SDS011;3872;47.902;8.162;2023-02-22T07:46:50;6.50;;;2.70;;
7659;SDS011;3872;47.902;8.162;2023-02-22T07:49:17;5.50;;;1.90;;
7659;SDS011;3872;47.902;8.162;2023-02-22T07:51:45;6.20;;;2.30;;
7659;SDS011;3872;47.902;8.162;2023-02-22T07:54:11;4.73;;;2.00;;
7659;SDS011;3872;47.902;8.162;2023-02-22T07:56:42;8.10;;;2.80;;
7659;SDS011;3872;47.902;8.162;2023-02-22T07:59:10;4.70;;;2.00;;
7659;SDS011;3872;47.902;8.162;2023-02-22T08:01:36;6.20;;;2.40;;
7659;SDS011;3872;47.902;8.162;2023-02-22T08:04:03;7.43;;;3.00;;
7659;SDS011;3872;47.902;8.162;2023-02-22T08:06:30;8.20;;;2.90;;
7659;SDS011;3872;47.902;8.162;2023-02-22T08:08:58;6.07;;;2.63;;
7659;SDS011;3872;47.902;8.162;2023-02-22T08:11:24;6.60;;;2.13;;
7659;SDS011;3872;47.902;8.162;2023-02-22T08:13:51;6.90;;;2.10;;
7659;SDS011;3872;47.902;8.162;2023-02-22T08:16:17;5.33;;;2.17;;
7659;SDS011;3872;47.902;8.162;2023-02-22T08:18:44;5.10;;;1.97;;
7659;SDS011;3872;47.902;8.162;2023-02-22T08:21:10;6.07;;;2.20;;
7659;SDS011;3872;47.902;8.162;2023-02-22T08:23:37;6.80;;;3.03;;
7659;SDS011;3872;47.902;8.162;2023-02-22T08:26:06;7.27;;;3.50;;
7659;SDS011;3872;47.902;8.162;2023-02-22T08:28:33;8.90;;;3.03;;
7659;SDS011;3872;47.902;8.162;2023-02-22T08:31:00;5.33;;;2.40;;
7659;SDS011;3872;47.902;8.162;2023-02-22T08:33:27;4.80;;;2.40;;
7659;SDS011;3872;47.902;8.162;2023-02-22T08:35:53;6.30;;;2.83;;
7659;SDS011;3872;47.902;8.162;2023-02-22T08:38:21;6.47;;;2.30;;
7659;SDS011;3872;47.902;8.162;2023-02-22T08:40:51;4.70;;;1.70;;
7659;SDS011;3872;47.902;8.162;2023-02-22T08:43:19;5.10;;;1.63;;
7659;SDS011;3872;47.902;8.162;2023-02-22T08:45:47;4.77;;;1.90;;
7659;SDS011;3872;47.902;8.162;2023-02-22T08:48:15;4.70;;;1.80;;
7659;SDS011;3872;47.902;8.162;2023-02-22T08:50:43;4.60;;;1.57;;
7659;SDS011;3872;47.902;8.162;2023-02-22T08:53:11;4.57;;;1.77;;
7659;SDS011;3872;47.902;8.162;2023-02-22T08:55:38;5.20;;;1.73;;
7659;SDS011;3872;47.902;8.162;2023-02-22T08:58:06;10.80;;;1.80;;
7659;SDS011;3872;47.902;8.162;2023-02-22T09:00:35;3.87;;;1.60;;
7659;SDS011;3872;47.902;8.162;2023-02-22T09:03:03;5.17;;;1.40;;
7659;SDS011;3872;47.902;8.162;2023-02-22T09:05:31;4.43;;;1.60;;
7659;SDS011;3872;47.902;8.162;2023-02-22T09:07:58;7.37;;;1.50;;
7659;SDS011;3872;47.902;8.162;2023-02-22T09:10:26;7.17;;;1.63;;
7659;SDS011;3872;47.902;8.162;2023-02-22T09:12:54;4.20;;;1.67;;
7659;SDS011;3872;47.902;8.162;2023-02-22T09:15:21;3.70;;;1.20;;
7659;SDS011;3872;47.902;8.162;2023-02-22T09:17:50;4.13;;;1.57;;
7659;SDS011;3872;47.902;8.162;2023-02-22T09:20:17;8.37;;;1.80;;
7659;SDS011;3872;47.902;8.162;2023-02-22T09:22:45;4.20;;;1.90;;
7659;SDS011;3872;47.902;8.162;2023-02-22T09:25:13;5.23;;;1.93;;
7659;SDS011;3872;47.902;8.162;2023-02-22T09:27:40;4.87;;;2.10;;
7659;SDS011;3872;47.902;8.162;2023-02-22T09:30:08;5.10;;;1.80;;
7659;SDS011;3872;47.902;8.162;2023-02-22T09:32:40;5.17;;;1.60;;
7659;SDS011;3872;47.902;8.162;2023-02-22T09:35:08;4.60;;;1.73;;
7659;SDS011;3872;47.902;8.162;2023-02-22T09:37:37;4.87;;;1.50;;
7659;SDS011;3872;47.902;8.162;2023-02-22T09:40:03;4.73;;;1.73;;
7659;SDS011;3872;47.902;8.162;2023-02-22T09:42:34;4.70;;;1.70;;
7659;SDS011;3872;47.902;8.162;2023-02-22T09:45:05;3.90;;;1.37;;
7659;SDS011;3872;47.902;8.162;2023-02-22T09:47:37;4.07;;;1.63;;
7659;SDS011;3872;47.902;8.162;2023-02-22T09:50:07;4.17;;;1.70;;
7659;SDS011;3872;47.902;8.162;2023-02-22T09:52:42;4.97;;;2.00;;
7659;SDS011;3872;47.902;8.162;2023-02-22T09:55:20;5.20;;;1.80;;
7659;SDS011;3872;47.902;8.162;2023-02-22T09:57:56;3.90;;;1.47;;
7659;SDS011;3872;47.902;8.162;2023-02-22T10:00:26;4.50;;;1.70;;
7659;SDS011;3872;47.902;8.162;2023-02-22T10:03:02;5.67;;;1.93;;
7659;SDS011;3872;47.902;8.162;2023-02-22T10:05:40;4.67;;;2.00;;
7659;SDS011;3872;47.902;8.162;2023-02-22T10:08:09;5.27;;;1.90;;
7659;SDS011;3872;47.902;8.162;2023-02-22T10:10:38;5.83;;;2.07;;
7659;SDS011;3872;47.902;8.162;2023-02-22T10:13:09;5.60;;;2.10;;
7659;SDS011;3872;47.902;8.162;2023-02-22T10:15:45;7.43;;;2.80;;
7659;SDS011;3872;47.902;8.162;2023-02-22T10:18:31;5.80;;;2.63;;
7659;SDS011;3872;47.902;8.162;2023-02-22T10:21:11;6.33;;;2.60;;
7659;SDS011;3872;47.902;8.162;2023-02-22T10:23:50;7.90;;;2.70;;
7659;SDS011;3872;47.902;8.162;2023-02-22T10:26:27;10.67;;;3.23;;
7659;SDS011;3872;47.902;8.162;2023-02-22T10:28:57;7.23;;;3.17;;
7659;SDS011;3872;47.902;8.162;2023-02-22T10:31:29;6.13;;;3.23;;
7659;SDS011;3872;47.902;8.162;2023-02-22T10:34:01;8.73;;;3.70;;
7659;SDS011;3872;47.902;8.162;2023-02-22T10:36:32;8.23;;;3.13;;
7659;SDS011;3872;47.902;8.162;2023-02-22T10:39:06;6.13;;;3.37;;
7659;SDS011;3872;47.902;8.162;2023-02-22T10:41:47;7.13;;;3.40;;
7659;SDS011;3872;47.902;8.162;2023-02-22T10:44:16;9.27;;;3.80;;
7659;SDS011;3872;47.902;8.162;2023-02-22T10:46:43;12.83;;;4.00;;
7659;SDS011;3872;47.902;8.162;2023-02-22T10:49:11;6.80;;;3.60;;
7659;SDS011;3872;47.902;8.162;2023-02-22T10:51:45;12.13;;;4.30;;
7659;SDS011;3872;47.902;8.162;2023-02-22T10:54:21;11.57;;;4.13;;
7659;SDS011;3872;47.902;8.162;2023-02-22T10:56:52;15.90;;;4.20;;
7659;SDS011;3872;47.902;8.162;2023-02-22T10:59:28;11.40;;;3.70;;
7659;SDS011;3872;47.902;8.162;2023-02-22T11:01:58;8.07;;;4.17;;
7659;SDS011;3872;47.902;8.162;2023-02-22T11:04:25;11.63;;;4.40;;
7659;SDS011;3872;47.902;8.162;2023-02-22T11:07:15;9.00;;;3.93;;
7659;SDS011;3872;47.902;8.162;2023-02-22T11:09:45;9.00;;;3.80;;
7659;SDS011;3872;47.902;8.162;2023-02-22T11:12:19;7.70;;;4.00;;
7659;SDS011;3872;47.902;8.162;2023-02-22T11:14:50;7.77;;;4.00;;
7659;SDS011;3872;47.902;8.162;2023-02-22T11:17:18;8.33;;;3.67;;
7659;SDS011;3872;47.902;8.162;2023-02-22T11:19:52;11.20;;;4.40;;
7659;SDS011;3872;47.902;8.162;2023-02-22T11:22:22;7.73;;;3.77;;
7659;SDS011;3872;47.902;8.162;2023-02-22T11:24:54;9.10;;;4.33;;
7659;SDS011;3872;47.902;8.162;2023-02-22T11:27:30;8.53;;;4.50;;
7659;SDS011;3872;47.902;8.162;2023-02-22T11:30:07;10.87;;;4.00;;
7659;SDS011;3872;47.902;8.162;2023-02-22T11:32:42;8.03;;;3.80;;
7659;SDS011;3872;47.902;8.162;2023-02-22T11:35:19;7.77;;;3.73;;
7659;SDS011;3872;47.902;8.162;2023-02-22T11:38:09;8.93;;;4.43;;
7659;SDS011;3872;47.902;8.162;2023-02-22T11:40:48;9.27;;;4.57;;
7659;SDS011;3872;47.902;8.162;2023-02-22T11:43:32;10.23;;;4.30;;
7659;SDS011;3872;47.902;8.162;2023-02-22T11:45:59;11.13;;;5.27;;
7659;SDS011;3872;47.902;8.162;2023-02-22T11:48:29;12.30;;;5.10;;
7659;SDS011;3872;47.902;8.162;2023-02-22T11:51:18;9.57;;;5.57;;
7659;SDS011;3872;47.902;8.162;2023-02-22T11:54:01;17.63;;;5.43;;
7659;SDS011;3872;47.902;8.162;2023-02-22T11:56:39;9.77;;;5.43;;
7659;SDS011;3872;47.902;8.162;2023-02-22T11:59:12;13.13;;;5.23;;
7659;SDS011;3872;47.902;8.162;2023-02-22T12:01:48;10.77;;;5.10;;
7659;SDS011;3872;47.902;8.162;2023-02-22T12:04:22;11.83;;;4.90;;
7659;SDS011;3872;47.902;8.162;2023-02-22T12:10:11;11.17;;;4.53;;
7659;SDS011;3872;47.902;8.162;2023-02-22T12:12:46;10.00;;;4.93;;
7659;SDS011;3872;47.902;8.162;2023-02-22T12:15:24;9.63;;;5.73;;
7659;SDS011;3872;47.902;8.162;2023-02-22T12:17:57;10.97;;;4.97;;
7659;SDS011;3872;47.902;8.162;2023-02-22T12:20:34;10.20;;;4.00;;
7659;SDS011;3872;47.902;8.162;2023-02-22T12:23:06;9.70;;;4.00;;
7659;SDS011;3872;47.902;8.162;2023-02-22T12:25:51;9.00;;;3.97;;
7659;SDS011;3872;47.902;8.162;2023-02-22T12:28:24;6.80;;;3.60;;
7659;SDS011;3872;47.902;8.162;2023-02-22T12:30:59;6.53;;;3.20;;
7659;SDS011;3872;47.902;8.162;2023-02-22T12:33:34;6.43;;;3.73;;
7659;SDS011;3872;47.902;8.162;2023-02-22T12:36:07;9.30;;;3.87;;
7659;SDS011;3872;47.902;8.162;2023-02-22T12:38:40;8.20;;;3.70;;
7659;SDS011;3872;47.902;8.162;2023-02-22T12:41:11;13.53;;;3.70;;
7659;SDS011;3872;47.902;8.162;2023-02-22T12:43:44;9.23;;;3.60;;
7659;SDS011;3872;47.902;8.162;2023-02-22T12:46:17;14.43;;;3.90;;
7659;SDS011;3872;47.902;8.162;2023-02-22T12:48:47;9.63;;;4.63;;
7659;SDS011;3872;47.902;8.162;2023-02-22T12:51:26;7.27;;;3.73;;
7659;SDS011;3872;47.902;8.162;2023-02-22T12:54:01;11.17;;;3.77;;
7659;SDS011;3872;47.902;8.162;2023-02-22T12:56:38;10.73;;;3.50;;
7659;SDS011;3872;47.902;8.162;2023-02-22T12:59:10;7.40;;;3.37;;
7659;SDS011;3872;47.902;8.162;2023-02-22T13:01:44;7.50;;;3.87;;
7659;SDS011;3872;47.902;8.162;2023-02-22T13:04:15;23.30;;;4.37;;
7659;SDS011;3872;47.902;8.162;2023-02-22T13:06:44;7.83;;;3.77;;
7659;SDS011;3872;47.902;8.162;2023-02-22T13:09:30;7.10;;;3.50;;
7659;SDS011;3872;47.902;8.162;2023-02-22T13:12:10;13.13;;;4.00;;
7659;SDS011;3872;47.902;8.162;2023-02-22T13:14:46;12.60;;;4.87;;
7659;SDS011;3872;47.902;8.162;2023-02-22T13:17:22;13.50;;;4.60;;
7659;SDS011;3872;47.902;8.162;2023-02-22T13:19:58;8.33;;;5.00;;
7659;SDS011;3872;47.902;8.162;2023-02-22T13:22:32;9.30;;;4.83;;
7659;SDS011;3872;47.902;8.162;2023-02-22T13:25:05;12.00;;;4.67;;
7659;SDS011;3872;47.902;8.162;2023-02-22T13:27:39;9.53;;;5.77;;
7659;SDS011;3872;47.902;8.162;2023-02-22T13:30:16;11.43;;;5.43;;
7659;SDS011;3872;47.902;8.162;2023-02-22T13:32:56;15.20;;;6.17;;
7659;SDS011;3872;47.902;8.162;2023-02-22T13:35:39;14.80;;;6.20;;
7659;SDS011;3872;47.902;8.162;2023-02-22T13:38:41;16.90;;;6.07;;
7659;SDS011;3872;47.902;8.162;2023-02-22T13:47:30;10.67;;;5.60;;
7659;SDS011;3872;47.902;8.162;2023-02-22T13:50:21;12.03;;;5.87;;
7659;SDS011;3872;47.902;8.162;2023-02-22T13:52:58;14.77;;;6.47;;
7659;SDS011;3872;47.902;8.162;2023-02-22T13:55:32;14.27;;;5.90;;
7659;SDS011;3872;47.902;8.162;2023-02-22T13:58:01;13.57;;;6.90;;
7659;SDS011;3872;47.902;8.162;2023-02-22T14:00:45;11.30;;;5.83;;
7659;SDS011;3872;47.902;8.162;2023-02-22T14:06:08;12.90;;;6.07;;
7659;SDS011;3872;47.902;8.162;2023-02-22T14:08:45;14.17;;;6.47;;
7659;SDS011;3872;47.902;8.162;2023-02-22T14:14:16;18.10;;;6.87;;
7659;SDS011;3872;47.902;8.162;2023-02-22T14:16:44;14.07;;;7.00;;
7659;SDS011;3872;47.902;8.162;2023-02-22T14:20:03;12.57;;;6.20;;
7659;SDS011;3872;47.902;8.162;2023-02-22T14:22:45;21.73;;;7.00;;
7659;SDS011;3872;47.902;8.162;2023-02-22T14:25:29;12.70;;;5.93;;
7659;SDS011;3872;47.902;8.162;2023-02-22T14:28:00;16.40;;;6.43;;
7659;SDS011;3872;47.902;8.162;2023-02-22T14:30:29;13.27;;;6.27;;
7659;SDS011;3872;47.902;8.162;2023-02-22T14:32:57;18.27;;;7.60;;
7659;SDS011;3872;47.902;8.162;2023-02-22T14:35:36;18.30;;;7.50;;
7659;SDS011;3872;47.902;8.162;2023-02-22T14:38:09;26.03;;;8.03;;
7659;SDS011;3872;47.902;8.162;2023-02-22T14:40:42;16.93;;;7.73;;
7659;SDS011;3872;47.902;8.162;2023-02-22T14:43:13;13.60;;;6.50;;
7659;SDS011;3872;47.902;8.162;2023-02-22T14:45:44;21.87;;;7.20;;
7659;SDS011;3872;47.902;8.162;2023-02-22T14:48:17;64.00;;;12.80;;
7659;SDS011;3872;47.902;8.162;2023-02-22T14:50:51;16.27;;;7.90;;
7659;SDS011;3872;47.902;8.162;2023-02-22T14:53:22;15.23;;;6.70;;
7659;SDS011;3872;47.902;8.162;2023-02-22T14:55:52;16.07;;;7.87;;
7659;SDS011;3872;47.902;8.162;2023-02-22T14:58:22;14.57;;;6.50;;
7659;SDS011;3872;47.902;8.162;2023-02-22T15:00:54;14.70;;;7.40;;
7659;SDS011;3872;47.902;8.162;2023-02-22T15:03:26;14.80;;;7.47;;
7659;SDS011;3872;47.902;8.162;2023-02-22T15:06:03;17.10;;;7.70;;
7659;SDS011;3872;47.902;8.162;2023-02-22T15:08:31;20.20;;;7.57;;
7659;SDS011;3872;47.902;8.162;2023-02-22T15:10:58;13.73;;;6.83;;
7659;SDS011;3872;47.902;8.162;2023-02-22T15:13:27;17.07;;;7.57;;
7659;SDS011;3872;47.902;8.162;2023-02-22T15:15:57;16.03;;;8.10;;
7659;SDS011;3872;47.902;8.162;2023-02-22T15:18:26;16.37;;;8.53;;
7659;SDS011;3872;47.902;8.162;2023-02-22T15:20:57;19.37;;;8.23;;
7659;SDS011;3872;47.902;8.162;2023-02-22T15:23:37;15.73;;;7.33;;
7659;SDS011;3872;47.902;8.162;2023-02-22T15:26:06;18.80;;;8.50;;
7659;SDS011;3872;47.902;8.162;2023-02-22T15:28:40;17.83;;;7.73;;
7659;SDS011;3872;47.902;8.162;2023-02-22T15:31:20;16.70;;;8.73;;
7659;SDS011;3872;47.902;8.162;2023-02-22T15:33:50;18.80;;;8.27;;
7659;SDS011;3872;47.902;8.162;2023-02-22T15:36:19;20.00;;;7.80;;
7659;SDS011;3872;47.902;8.162;2023-02-22T15:38:49;14.50;;;7.10;;
7659;SDS011;3872;47.902;8.162;2023-02-22T15:41:22;12.07;;;6.63;;
7659;SDS011;3872;47.902;8.162;2023-02-22T15:43:55;14.73;;;7.70;;
7659;SDS011;3872;47.902;8.162;2023-02-22T15:46:26;16.80;;;7.30;;
7659;SDS011;3872;47.902;8.162;2023-02-22T15:49:04;13.70;;;6.83;;
7659;SDS011;3872;47.902;8.162;2023-02-22T15:51:33;18.00;;;8.30;;
7659;SDS011;3872;47.902;8.162;2023-02-22T15:54:03;13.60;;;7.70;;